sensor_id;sensor_type;location;lat;lon;timestamp;temperature;humidity
25010;DHT22;13026;49.486;10.926;2022-08-06T00:02:24;18.90;99.90
25010;DHT22;13026;49.486;10.926;2022-08-06T00:04:50;18.90;99.90
25010;DHT22;13026;49.486;10.926;2022-08-06T00:07:16;19.00;99.90
25010;DHT22;13026;49.486;10.926;2022-08-06T00:09:42;18.90;99.90
25010;DHT22;13026;49.486;10.926;2022-08-06T00:12:08;19.00;99.90
25010;DHT22;13026;49.486;10.926;2022-08-06T00:14:34;19.00;99.90
25010;DHT22;13026;49.486;10.926;2022-08-06T00:17:00;19.00;99.90
25010;DHT22;13026;49.486;10.926;2022-08-06T00:19:26;19.00;99.90
25010;DHT22;13026;49.486;10.926;2022-08-06T00:21:52;19.00;99.90
25010;DHT22;13026;49.486;10.926;2022-08-06T00:24:18;19.00;99.90
25010;DHT22;13026;49.486;10.926;2022-08-06T00:26:44;19.20;99.90
25010;DHT22;13026;49.486;10.926;2022-08-06T00:29:10;19.20;99.90
25010;DHT22;13026;49.486;10.926;2022-08-06T00:31:36;19.20;99.90
25010;DHT22;13026;49.486;10.926;2022-08-06T00:34:02;19.30;99.90
25010;DHT22;13026;49.486;10.926;2022-08-06T00:36:28;19.30;99.90
25010;DHT22;13026;49.486;10.926;2022-08-06T00:38:55;19.30;99.90
25010;DHT22;13026;49.486;10.926;2022-08-06T00:41:21;19.30;99.90
25010;DHT22;13026;49.486;10.926;2022-08-06T00:43:47;19.20;99.90
25010;DHT22;13026;49.486;10.926;2022-08-06T00:46:13;19.20;99.90
25010;DHT22;13026;49.486;10.926;2022-08-06T00:48:39;19.20;99.90
25010;DHT22;13026;49.486;10.926;2022-08-06T00:51:05;19.20;99.90
25010;DHT22;13026;49.486;10.926;2022-08-06T00:53:30;19.20;99.90
25010;DHT22;13026;49.486;10.926;2022-08-06T00:55:56;19.20;99.90
25010;DHT22;13026;49.486;10.926;2022-08-06T00:58:22;19.10;99.90
25010;DHT22;13026;49.486;10.926;2022-08-06T01:00:47;19.10;99.90
25010;DHT22;13026;49.486;10.926;2022-08-06T01:03:13;19.10;99.90
25010;DHT22;13026;49.486;10.926;2022-08-06T01:05:38;19.10;99.90
25010;DHT22;13026;49.486;10.926;2022-08-06T01:08:04;19.00;99.90
25010;DHT22;13026;49.486;10.926;2022-08-06T01:10:29;19.00;99.90
25010;DHT22;13026;49.486;10.926;2022-08-06T01:12:55;19.00;99.90
25010;DHT22;13026;49.486;10.926;2022-08-06T01:15:20;19.00;99.90
25010;DHT22;13026;49.486;10.926;2022-08-06T01:28:12;19.00;99.90
25010;DHT22;13026;49.486;10.926;2022-08-06T01:30:44;19.00;99.90
25010;DHT22;13026;49.486;10.926;2022-08-06T01:33:24;19.00;99.90
25010;DHT22;13026;49.486;10.926;2022-08-06T01:35:54;19.00;99.90
25010;DHT22;13026;49.486;10.926;2022-08-06T01:38:25;18.90;99.90
25010;DHT22;13026;49.486;10.926;2022-08-06T01:40:52;18.90;99.90
25010;DHT22;13026;49.486;10.926;2022-08-06T01:43:20;18.90;99.90
25010;DHT22;13026;49.486;10.926;2022-08-06T01:45:50;18.90;99.90
25010;DHT22;13026;49.486;10.926;2022-08-06T01:48:19;18.90;99.90
25010;DHT22;13026;49.486;10.926;2022-08-06T01:50:48;18.90;99.90
25010;DHT22;13026;49.486;10.926;2022-08-06T01:53:21;18.80;99.90
25010;DHT22;13026;49.486;10.926;2022-08-06T01:55:52;18.80;99.90
25010;DHT22;13026;49.486;10.926;2022-08-06T01:58:22;18.80;99.90
25010;DHT22;13026;49.486;10.926;2022-08-06T02:00:50;18.80;99.90
25010;DHT22;13026;49.486;10.926;2022-08-06T02:03:35;18.80;99.90
25010;DHT22;13026;49.486;10.926;2022-08-06T02:06:01;18.80;99.90
25010;DHT22;13026;49.486;10.926;2022-08-06T02:08:30;18.70;99.90
25010;DHT22;13026;49.486;10.926;2022-08-06T02:10:57;18.70;99.90
25010;DHT22;13026;49.486;10.926;2022-08-06T02:13:24;18.70;99.90
25010;DHT22;13026;49.486;10.926;2022-08-06T02:15:52;18.60;99.90
25010;DHT22;13026;49.486;10.926;2022-08-06T02:18:21;18.60;99.90
25010;DHT22;13026;49.486;10.926;2022-08-06T02:20:50;18.60;99.90
25010;DHT22;13026;49.486;10.926;2022-08-06T02:23:20;18.60;99.90
25010;DHT22;13026;49.486;10.926;2022-08-06T02:25:47;18.50;99.90
25010;DHT22;13026;49.486;10.926;2022-08-06T02:28:15;18.50;99.90
25010;DHT22;13026;49.486;10.926;2022-08-06T02:30:44;18.50;99.90
25010;DHT22;13026;49.486;10.926;2022-08-06T02:33:12;18.50;99.90
25010;DHT22;13026;49.486;10.926;2022-08-06T02:35:44;18.50;99.90
25010;DHT22;13026;49.486;10.926;2022-08-06T02:38:16;18.50;99.90
25010;DHT22;13026;49.486;10.926;2022-08-06T02:40:49;18.50;99.90
25010;DHT22;13026;49.486;10.926;2022-08-06T02:43:31;18.50;99.90
25010;DHT22;13026;49.486;10.926;2022-08-06T02:46:13;18.40;99.90
25010;DHT22;13026;49.486;10.926;2022-08-06T02:48:50;18.40;99.90
25010;DHT22;13026;49.486;10.926;2022-08-06T02:51:19;18.40;99.90
25010;DHT22;13026;49.486;10.926;2022-08-06T02:54:03;18.30;99.90
25010;DHT22;13026;49.486;10.926;2022-08-06T02:56:31;18.30;99.90
25010;DHT22;13026;49.486;10.926;2022-08-06T02:58:59;18.30;99.90
25010;DHT22;13026;49.486;10.926;2022-08-06T03:01:29;18.30;99.90
25010;DHT22;13026;49.486;10.926;2022-08-06T03:03:58;18.20;99.90
25010;DHT22;13026;49.486;10.926;2022-08-06T03:06:26;18.20;99.90
25010;DHT22;13026;49.486;10.926;2022-08-06T03:08:53;18.30;99.90
25010;DHT22;13026;49.486;10.926;2022-08-06T03:11:21;18.30;99.90
25010;DHT22;13026;49.486;10.926;2022-08-06T03:13:48;18.30;99.90
25010;DHT22;13026;49.486;10.926;2022-08-06T03:16:15;18.40;99.90
25010;DHT22;13026;49.486;10.926;2022-08-06T03:18:43;18.40;99.90
25010;DHT22;13026;49.486;10.926;2022-08-06T03:21:10;18.40;99.90
25010;DHT22;13026;49.486;10.926;2022-08-06T03:23:37;18.40;99.90
25010;DHT22;13026;49.486;10.926;2022-08-06T03:26:03;18.40;99.90
25010;DHT22;13026;49.486;10.926;2022-08-06T03:28:31;18.40;99.90
25010;DHT22;13026;49.486;10.926;2022-08-06T03:30:59;18.40;99.90
25010;DHT22;13026;49.486;10.926;2022-08-06T03:33:25;18.30;99.90
25010;DHT22;13026;49.486;10.926;2022-08-06T03:35:56;18.20;99.90
25010;DHT22;13026;49.486;10.926;2022-08-06T03:38:25;18.20;99.90
25010;DHT22;13026;49.486;10.926;2022-08-06T03:40:51;18.10;99.90
25010;DHT22;13026;49.486;10.926;2022-08-06T03:43:17;18.10;99.90
25010;DHT22;13026;49.486;10.926;2022-08-06T03:45:52;18.00;99.90
25010;DHT22;13026;49.486;10.926;2022-08-06T03:48:23;18.00;99.90
25010;DHT22;13026;49.486;10.926;2022-08-06T03:50:49;18.00;99.90
25010;DHT22;13026;49.486;10.926;2022-08-06T03:53:20;18.00;99.90
25010;DHT22;13026;49.486;10.926;2022-08-06T03:55:46;18.00;99.90
25010;DHT22;13026;49.486;10.926;2022-08-06T03:58:14;18.00;99.90
25010;DHT22;13026;49.486;10.926;2022-08-06T04:00:53;18.00;99.90
25010;DHT22;13026;49.486;10.926;2022-08-06T04:03:21;18.00;99.90
25010;DHT22;13026;49.486;10.926;2022-08-06T04:05:47;18.00;99.90
25010;DHT22;13026;49.486;10.926;2022-08-06T04:08:13;18.00;99.90
25010;DHT22;13026;49.486;10.926;2022-08-06T04:10:44;18.00;99.90
25010;DHT22;13026;49.486;10.926;2022-08-06T04:13:12;18.00;99.90
25010;DHT22;13026;49.486;10.926;2022-08-06T04:15:39;18.00;99.90
25010;DHT22;13026;49.486;10.926;2022-08-06T04:18:08;17.90;99.90
25010;DHT22;13026;49.486;10.926;2022-08-06T04:20:35;17.90;99.90
25010;DHT22;13026;49.486;10.926;2022-08-06T04:23:01;17.90;99.90
25010;DHT22;13026;49.486;10.926;2022-08-06T04:25:30;17.90;99.90
25010;DHT22;13026;49.486;10.926;2022-08-06T04:27:57;17.90;99.90
25010;DHT22;13026;49.486;10.926;2022-08-06T04:30:24;17.90;99.90
25010;DHT22;13026;49.486;10.926;2022-08-06T04:32:52;17.90;99.90
25010;DHT22;13026;49.486;10.926;2022-08-06T04:35:18;17.90;99.90
25010;DHT22;13026;49.486;10.926;2022-08-06T04:37:44;17.90;99.90
25010;DHT22;13026;49.486;10.926;2022-08-06T04:40:11;17.80;99.90
25010;DHT22;13026;49.486;10.926;2022-08-06T04:42:36;17.90;99.90
25010;DHT22;13026;49.486;10.926;2022-08-06T04:45:03;17.80;99.90
25010;DHT22;13026;49.486;10.926;2022-08-06T04:47:30;17.80;99.90
25010;DHT22;13026;49.486;10.926;2022-08-06T04:49:56;17.80;99.90
25010;DHT22;13026;49.486;10.926;2022-08-06T04:52:23;17.80;99.90
25010;DHT22;13026;49.486;10.926;2022-08-06T04:54:49;17.80;99.90
25010;DHT22;13026;49.486;10.926;2022-08-06T04:57:15;17.90;99.90
25010;DHT22;13026;49.486;10.926;2022-08-06T04:59:40;17.90;99.90
25010;DHT22;13026;49.486;10.926;2022-08-06T05:02:06;17.90;99.90
25010;DHT22;13026;49.486;10.926;2022-08-06T05:04:33;17.90;99.90
25010;DHT22;13026;49.486;10.926;2022-08-06T05:09:28;17.90;99.90
25010;DHT22;13026;49.486;10.926;2022-08-06T05:12:00;17.90;99.90
25010;DHT22;13026;49.486;10.926;2022-08-06T05:17:38;17.90;99.90
25010;DHT22;13026;49.486;10.926;2022-08-06T05:20:27;18.00;99.90
25010;DHT22;13026;49.486;10.926;2022-08-06T05:22:54;18.10;99.90
25010;DHT22;13026;49.486;10.926;2022-08-06T05:25:20;18.10;99.90
25010;DHT22;13026;49.486;10.926;2022-08-06T05:27:49;18.20;99.70
25010;DHT22;13026;49.486;10.926;2022-08-06T05:30:15;18.20;99.30
25010;DHT22;13026;49.486;10.926;2022-08-06T05:32:45;18.30;99.00
25010;DHT22;13026;49.486;10.926;2022-08-06T05:35:12;18.30;98.10
25010;DHT22;13026;49.486;10.926;2022-08-06T05:37:38;18.30;97.50
25010;DHT22;13026;49.486;10.926;2022-08-06T05:40:04;18.20;97.90
25010;DHT22;13026;49.486;10.926;2022-08-06T05:42:30;18.30;97.60
25010;DHT22;13026;49.486;10.926;2022-08-06T05:44:56;18.30;97.00
25010;DHT22;13026;49.486;10.926;2022-08-06T05:47:26;18.30;96.10
25010;DHT22;13026;49.486;10.926;2022-08-06T05:50:02;18.30;95.30
25010;DHT22;13026;49.486;10.926;2022-08-06T05:55:21;18.30;94.20
25010;DHT22;13026;49.486;10.926;2022-08-06T05:58:00;18.30;93.70
25010;DHT22;13026;49.486;10.926;2022-08-06T06:00:27;18.30;93.40
25010;DHT22;13026;49.486;10.926;2022-08-06T06:02:55;18.30;93.20
25010;DHT22;13026;49.486;10.926;2022-08-06T06:05:22;18.30;93.10
25010;DHT22;13026;49.486;10.926;2022-08-06T06:07:51;18.30;92.60
25010;DHT22;13026;49.486;10.926;2022-08-06T06:10:17;18.30;92.40
25010;DHT22;13026;49.486;10.926;2022-08-06T06:12:43;18.40;92.10
25010;DHT22;13026;49.486;10.926;2022-08-06T06:15:11;18.50;91.10
25010;DHT22;13026;49.486;10.926;2022-08-06T06:20:46;18.50;90.30
25010;DHT22;13026;49.486;10.926;2022-08-06T06:28:33;18.60;88.50
25010;DHT22;13026;49.486;10.926;2022-08-06T06:31:10;18.60;88.10
25010;DHT22;13026;49.486;10.926;2022-08-06T06:39:35;18.80;86.50
25010;DHT22;13026;49.486;10.926;2022-08-06T06:42:07;18.80;85.40
25010;DHT22;13026;49.486;10.926;2022-08-06T06:44:39;18.90;84.00
25010;DHT22;13026;49.486;10.926;2022-08-06T06:47:15;18.80;82.90
25010;DHT22;13026;49.486;10.926;2022-08-06T06:49:44;18.80;82.30
25010;DHT22;13026;49.486;10.926;2022-08-06T06:52:23;18.80;83.20
25010;DHT22;13026;49.486;10.926;2022-08-06T06:54:55;18.80;80.90
25010;DHT22;13026;49.486;10.926;2022-08-06T06:57:33;18.90;81.00
25010;DHT22;13026;49.486;10.926;2022-08-06T07:00:02;19.00;80.40
25010;DHT22;13026;49.486;10.926;2022-08-06T07:02:31;19.00;79.40
25010;DHT22;13026;49.486;10.926;2022-08-06T07:04:57;19.00;78.50
25010;DHT22;13026;49.486;10.926;2022-08-06T07:07:24;19.00;79.30
25010;DHT22;13026;49.486;10.926;2022-08-06T07:09:50;19.00;78.60
25010;DHT22;13026;49.486;10.926;2022-08-06T07:12:19;19.10;78.90
25010;DHT22;13026;49.486;10.926;2022-08-06T07:14:49;19.20;77.60
25010;DHT22;13026;49.486;10.926;2022-08-06T07:17:16;19.30;76.60
25010;DHT22;13026;49.486;10.926;2022-08-06T07:19:42;19.30;76.30
25010;DHT22;13026;49.486;10.926;2022-08-06T07:22:09;19.40;76.90
25010;DHT22;13026;49.486;10.926;2022-08-06T07:24:36;19.50;76.10
25010;DHT22;13026;49.486;10.926;2022-08-06T07:27:03;19.60;75.10
25010;DHT22;13026;49.486;10.926;2022-08-06T07:29:29;19.60;75.60
25010;DHT22;13026;49.486;10.926;2022-08-06T07:31:55;19.70;75.20
25010;DHT22;13026;49.486;10.926;2022-08-06T07:34:22;19.80;74.40
25010;DHT22;13026;49.486;10.926;2022-08-06T07:36:51;19.80;73.40
25010;DHT22;13026;49.486;10.926;2022-08-06T07:39:26;20.00;73.80
25010;DHT22;13026;49.486;10.926;2022-08-06T07:41:53;20.10;73.00
25010;DHT22;13026;49.486;10.926;2022-08-06T07:44:21;20.20;71.40
25010;DHT22;13026;49.486;10.926;2022-08-06T07:46:48;20.10;70.80
25010;DHT22;13026;49.486;10.926;2022-08-06T07:49:19;20.10;70.10
25010;DHT22;13026;49.486;10.926;2022-08-06T07:51:46;20.00;70.30
25010;DHT22;13026;49.486;10.926;2022-08-06T07:54:14;20.00;69.80
25010;DHT22;13026;49.486;10.926;2022-08-06T07:56:42;20.10;69.10
25010;DHT22;13026;49.486;10.926;2022-08-06T07:59:09;20.00;69.00
25010;DHT22;13026;49.486;10.926;2022-08-06T08:01:35;20.00;69.60
25010;DHT22;13026;49.486;10.926;2022-08-06T08:04:04;20.10;69.30
25010;DHT22;13026;49.486;10.926;2022-08-06T08:06:30;20.10;68.50
25010;DHT22;13026;49.486;10.926;2022-08-06T08:09:07;20.10;68.60
25010;DHT22;13026;49.486;10.926;2022-08-06T08:11:34;20.10;69.50
25010;DHT22;13026;49.486;10.926;2022-08-06T08:14:01;20.20;69.10
25010;DHT22;13026;49.486;10.926;2022-08-06T08:16:27;20.30;68.60
25010;DHT22;13026;49.486;10.926;2022-08-06T08:18:53;20.40;69.10
25010;DHT22;13026;49.486;10.926;2022-08-06T08:21:19;20.50;68.90
25010;DHT22;13026;49.486;10.926;2022-08-06T08:23:46;20.50;68.20
25010;DHT22;13026;49.486;10.926;2022-08-06T08:26:12;20.50;68.20
25010;DHT22;13026;49.486;10.926;2022-08-06T08:28:38;20.50;67.90
25010;DHT22;13026;49.486;10.926;2022-08-06T08:31:04;20.60;68.40
25010;DHT22;13026;49.486;10.926;2022-08-06T08:33:30;20.70;67.90
25010;DHT22;13026;49.486;10.926;2022-08-06T08:35:56;20.80;68.10
25010;DHT22;13026;49.486;10.926;2022-08-06T08:38:21;20.90;68.70
25010;DHT22;13026;49.486;10.926;2022-08-06T08:40:48;21.00;67.20
25010;DHT22;13026;49.486;10.926;2022-08-06T08:43:19;21.00;66.50
25010;DHT22;13026;49.486;10.926;2022-08-06T08:45:47;21.00;66.00
25010;DHT22;13026;49.486;10.926;2022-08-06T08:48:13;21.10;66.80
25010;DHT22;13026;49.486;10.926;2022-08-06T08:50:40;21.10;65.10
25010;DHT22;13026;49.486;10.926;2022-08-06T08:53:13;21.20;65.30
25010;DHT22;13026;49.486;10.926;2022-08-06T08:55:40;21.40;64.80
25010;DHT22;13026;49.486;10.926;2022-08-06T08:58:06;21.40;65.10
25010;DHT22;13026;49.486;10.926;2022-08-06T09:00:32;21.60;64.10
25010;DHT22;13026;49.486;10.926;2022-08-06T09:02:58;21.50;63.30
25010;DHT22;13026;49.486;10.926;2022-08-06T09:05:24;21.50;63.10
25010;DHT22;13026;49.486;10.926;2022-08-06T09:07:51;21.50;62.60
25010;DHT22;13026;49.486;10.926;2022-08-06T09:10:17;21.50;63.50
25010;DHT22;13026;49.486;10.926;2022-08-06T09:12:43;21.40;61.80
25010;DHT22;13026;49.486;10.926;2022-08-06T09:15:09;21.40;62.50
25010;DHT22;13026;49.486;10.926;2022-08-06T09:17:35;21.50;62.60
25010;DHT22;13026;49.486;10.926;2022-08-06T09:20:01;21.70;61.40
25010;DHT22;13026;49.486;10.926;2022-08-06T09:22:26;21.60;61.80
25010;DHT22;13026;49.486;10.926;2022-08-06T09:24:52;21.60;61.70
25010;DHT22;13026;49.486;10.926;2022-08-06T09:27:18;21.70;61.60
25010;DHT22;13026;49.486;10.926;2022-08-06T09:32:39;21.80;60.10
25010;DHT22;13026;49.486;10.926;2022-08-06T09:37:41;22.00;59.30
25010;DHT22;13026;49.486;10.926;2022-08-06T09:40:14;22.10;59.30
25010;DHT22;13026;49.486;10.926;2022-08-06T09:42:48;22.20;58.90
25010;DHT22;13026;49.486;10.926;2022-08-06T09:45:15;22.10;58.70
25010;DHT22;13026;49.486;10.926;2022-08-06T09:47:41;22.20;58.90
25010;DHT22;13026;49.486;10.926;2022-08-06T09:50:08;22.20;58.40
25010;DHT22;13026;49.486;10.926;2022-08-06T09:52:34;22.20;58.30
25010;DHT22;13026;49.486;10.926;2022-08-06T09:55:00;22.20;58.50
25010;DHT22;13026;49.486;10.926;2022-08-06T09:57:27;22.20;57.80
25010;DHT22;13026;49.486;10.926;2022-08-06T10:00:06;22.20;57.60
25010;DHT22;13026;49.486;10.926;2022-08-06T10:02:34;22.20;57.90
25010;DHT22;13026;49.486;10.926;2022-08-06T10:05:26;22.20;57.10
25010;DHT22;13026;49.486;10.926;2022-08-06T10:08:11;22.20;57.40
25010;DHT22;13026;49.486;10.926;2022-08-06T10:13:27;22.20;57.40
25010;DHT22;13026;49.486;10.926;2022-08-06T10:15:54;22.20;58.80
25010;DHT22;13026;49.486;10.926;2022-08-06T10:18:30;22.30;58.60
25010;DHT22;13026;49.486;10.926;2022-08-06T10:21:00;22.40;57.70
25010;DHT22;13026;49.486;10.926;2022-08-06T10:23:26;22.50;58.30
25010;DHT22;13026;49.486;10.926;2022-08-06T10:25:52;22.60;57.90
25010;DHT22;13026;49.486;10.926;2022-08-06T10:28:18;22.70;57.30
25010;DHT22;13026;49.486;10.926;2022-08-06T10:30:44;22.80;57.10
25010;DHT22;13026;49.486;10.926;2022-08-06T10:33:10;22.80;57.30
25010;DHT22;13026;49.486;10.926;2022-08-06T10:35:38;22.80;56.60
25010;DHT22;13026;49.486;10.926;2022-08-06T10:38:07;22.80;56.90
25010;DHT22;13026;49.486;10.926;2022-08-06T10:40:35;22.90;56.60
25010;DHT22;13026;49.486;10.926;2022-08-06T10:43:03;23.00;57.40
25010;DHT22;13026;49.486;10.926;2022-08-06T10:45:30;23.10;58.20
25010;DHT22;13026;49.486;10.926;2022-08-06T10:47:56;23.10;57.20
25010;DHT22;13026;49.486;10.926;2022-08-06T10:50:22;23.20;55.90
25010;DHT22;13026;49.486;10.926;2022-08-06T10:52:48;23.20;55.40
25010;DHT22;13026;49.486;10.926;2022-08-06T10:55:14;23.20;55.30
25010;DHT22;13026;49.486;10.926;2022-08-06T10:57:41;23.30;54.90
25010;DHT22;13026;49.486;10.926;2022-08-06T11:00:07;23.40;55.30
25010;DHT22;13026;49.486;10.926;2022-08-06T11:03:15;23.40;56.00
25010;DHT22;13026;49.486;10.926;2022-08-06T11:05:38;23.40;53.40
25010;DHT22;13026;49.486;10.926;2022-08-06T11:08:23;23.40;54.10
25010;DHT22;13026;49.486;10.926;2022-08-06T11:11:24;23.50;53.60
25010;DHT22;13026;49.486;10.926;2022-08-06T11:14:09;23.70;54.20
25010;DHT22;13026;49.486;10.926;2022-08-06T11:16:36;23.90;53.10
25010;DHT22;13026;49.486;10.926;2022-08-06T11:19:08;24.00;53.50
25010;DHT22;13026;49.486;10.926;2022-08-06T11:21:46;24.00;53.30
25010;DHT22;13026;49.486;10.926;2022-08-06T11:24:13;24.10;52.70
25010;DHT22;13026;49.486;10.926;2022-08-06T11:26:41;24.10;53.30
25010;DHT22;13026;49.486;10.926;2022-08-06T11:29:08;24.30;53.40
25010;DHT22;13026;49.486;10.926;2022-08-06T11:31:52;24.50;50.70
25010;DHT22;13026;49.486;10.926;2022-08-06T11:34:19;24.50;50.20
25010;DHT22;13026;49.486;10.926;2022-08-06T11:36:53;24.40;50.00
25010;DHT22;13026;49.486;10.926;2022-08-06T11:39:20;24.40;50.40
25010;DHT22;13026;49.486;10.926;2022-08-06T11:41:52;24.60;50.80
25010;DHT22;13026;49.486;10.926;2022-08-06T11:44:19;24.80;50.00
25010;DHT22;13026;49.486;10.926;2022-08-06T11:46:46;24.90;49.20
25010;DHT22;13026;49.486;10.926;2022-08-06T11:49:12;24.90;51.40
25010;DHT22;13026;49.486;10.926;2022-08-06T11:54:20;24.90;50.10
25010;DHT22;13026;49.486;10.926;2022-08-06T11:59:34;25.00;48.70
25010;DHT22;13026;49.486;10.926;2022-08-06T12:02:04;25.00;49.60
25010;DHT22;13026;49.486;10.926;2022-08-06T12:07:24;25.20;49.30
25010;DHT22;13026;49.486;10.926;2022-08-06T12:10:00;25.40;49.60
25010;DHT22;13026;49.486;10.926;2022-08-06T12:14:52;25.60;48.70
25010;DHT22;13026;49.486;10.926;2022-08-06T12:17:19;25.60;48.10
25010;DHT22;13026;49.486;10.926;2022-08-06T12:19:47;25.60;48.00
25010;DHT22;13026;49.486;10.926;2022-08-06T12:22:14;25.50;47.20
25010;DHT22;13026;49.486;10.926;2022-08-06T12:24:45;25.60;48.40
25010;DHT22;13026;49.486;10.926;2022-08-06T12:27:13;25.70;48.70
25010;DHT22;13026;49.486;10.926;2022-08-06T12:29:39;25.70;48.90
25010;DHT22;13026;49.486;10.926;2022-08-06T12:32:25;25.90;48.70
25010;DHT22;13026;49.486;10.926;2022-08-06T12:34:53;26.10;49.40
25010;DHT22;13026;49.486;10.926;2022-08-06T12:37:19;26.30;48.10
25010;DHT22;13026;49.486;10.926;2022-08-06T12:39:45;26.60;45.60
25010;DHT22;13026;49.486;10.926;2022-08-06T12:42:27;26.60;44.90
25010;DHT22;13026;49.486;10.926;2022-08-06T12:44:52;26.60;44.50
25010;DHT22;13026;49.486;10.926;2022-08-06T12:47:19;26.50;44.40
25010;DHT22;13026;49.486;10.926;2022-08-06T12:49:45;26.40;44.30
25010;DHT22;13026;49.486;10.926;2022-08-06T12:52:19;26.40;43.50
25010;DHT22;13026;49.486;10.926;2022-08-06T12:54:45;26.30;44.10
25010;DHT22;13026;49.486;10.926;2022-08-06T12:57:30;26.20;43.50
25010;DHT22;13026;49.486;10.926;2022-08-06T12:59:56;26.30;44.70
25010;DHT22;13026;49.486;10.926;2022-08-06T13:02:23;26.40;43.00
25010;DHT22;13026;49.486;10.926;2022-08-06T13:04:52;26.50;42.50
25010;DHT22;13026;49.486;10.926;2022-08-06T13:07:18;26.50;42.10
25010;DHT22;13026;49.486;10.926;2022-08-06T13:09:45;26.60;41.00
25010;DHT22;13026;49.486;10.926;2022-08-06T13:12:20;26.60;40.60
25010;DHT22;13026;49.486;10.926;2022-08-06T13:14:54;26.60;41.50
25010;DHT22;13026;49.486;10.926;2022-08-06T13:17:20;26.80;41.50
25010;DHT22;13026;49.486;10.926;2022-08-06T13:19:54;26.90;41.00
25010;DHT22;13026;49.486;10.926;2022-08-06T13:22:20;27.10;40.30
25010;DHT22;13026;49.486;10.926;2022-08-06T13:24:46;27.20;40.30
25010;DHT22;13026;49.486;10.926;2022-08-06T13:27:12;27.20;40.50
25010;DHT22;13026;49.486;10.926;2022-08-06T13:29:37;27.20;39.90
25010;DHT22;13026;49.486;10.926;2022-08-06T13:32:24;27.30;40.00
25010;DHT22;13026;49.486;10.926;2022-08-06T13:34:53;27.40;39.60
25010;DHT22;13026;49.486;10.926;2022-08-06T13:40:10;27.30;38.70
25010;DHT22;13026;49.486;10.926;2022-08-06T13:42:52;27.40;39.70
25010;DHT22;13026;49.486;10.926;2022-08-06T13:45:22;27.50;39.60
25010;DHT22;13026;49.486;10.926;2022-08-06T13:47:48;27.60;38.90
25010;DHT22;13026;49.486;10.926;2022-08-06T13:50:14;27.80;39.00
25010;DHT22;13026;49.486;10.926;2022-08-06T13:52:40;27.80;37.50
25010;DHT22;13026;49.486;10.926;2022-08-06T13:55:05;27.70;37.90
25010;DHT22;13026;49.486;10.926;2022-08-06T13:57:31;27.70;37.60
25010;DHT22;13026;49.486;10.926;2022-08-06T13:59:57;27.70;36.10
25010;DHT22;13026;49.486;10.926;2022-08-06T14:02:22;27.70;36.50
25010;DHT22;13026;49.486;10.926;2022-08-06T14:04:48;27.70;37.20
25010;DHT22;13026;49.486;10.926;2022-08-06T14:07:13;27.80;37.00
25010;DHT22;13026;49.486;10.926;2022-08-06T14:09:39;27.80;36.70
25010;DHT22;13026;49.486;10.926;2022-08-06T14:12:04;27.90;36.30
25010;DHT22;13026;49.486;10.926;2022-08-06T14:14:30;28.00;36.00
25010;DHT22;13026;49.486;10.926;2022-08-06T14:16:59;28.00;36.00
25010;DHT22;13026;49.486;10.926;2022-08-06T14:19:25;28.10;36.20
25010;DHT22;13026;49.486;10.926;2022-08-06T14:21:51;28.00;36.40
25010;DHT22;13026;49.486;10.926;2022-08-06T14:24:17;28.10;36.80
25010;DHT22;13026;49.486;10.926;2022-08-06T14:26:43;28.20;36.10
25010;DHT22;13026;49.486;10.926;2022-08-06T14:29:08;28.30;35.20
25010;DHT22;13026;49.486;10.926;2022-08-06T14:31:34;28.20;35.00
25010;DHT22;13026;49.486;10.926;2022-08-06T14:34:00;28.20;36.00
25010;DHT22;13026;49.486;10.926;2022-08-06T14:36:26;28.30;35.40
25010;DHT22;13026;49.486;10.926;2022-08-06T14:38:52;28.30;35.30
25010;DHT22;13026;49.486;10.926;2022-08-06T14:41:17;28.30;35.50
25010;DHT22;13026;49.486;10.926;2022-08-06T14:43:43;28.40;35.60
25010;DHT22;13026;49.486;10.926;2022-08-06T14:46:08;28.50;34.70
25010;DHT22;13026;49.486;10.926;2022-08-06T14:48:34;28.60;34.50
25010;DHT22;13026;49.486;10.926;2022-08-06T14:50:59;28.80;34.30
25010;DHT22;13026;49.486;10.926;2022-08-06T14:53:26;29.10;34.00
25010;DHT22;13026;49.486;10.926;2022-08-06T14:55:52;29.20;35.00
25010;DHT22;13026;49.486;10.926;2022-08-06T14:58:17;29.10;33.10
25010;DHT22;13026;49.486;10.926;2022-08-06T15:00:43;29.00;32.70
25010;DHT22;13026;49.486;10.926;2022-08-06T15:03:08;29.00;33.20
25010;DHT22;13026;49.486;10.926;2022-08-06T15:05:34;29.10;33.50
25010;DHT22;13026;49.486;10.926;2022-08-06T15:07:59;29.10;33.70
25010;DHT22;13026;49.486;10.926;2022-08-06T15:10:25;29.10;33.50
25010;DHT22;13026;49.486;10.926;2022-08-06T15:12:50;29.10;33.60
25010;DHT22;13026;49.486;10.926;2022-08-06T15:15:16;29.20;33.20
25010;DHT22;13026;49.486;10.926;2022-08-06T15:17:41;29.40;33.60
25010;DHT22;13026;49.486;10.926;2022-08-06T15:20:07;29.40;34.00
25010;DHT22;13026;49.486;10.926;2022-08-06T15:22:33;29.60;33.70
25010;DHT22;13026;49.486;10.926;2022-08-06T15:24:58;29.70;33.00
25010;DHT22;13026;49.486;10.926;2022-08-06T15:27:24;29.70;32.40
25010;DHT22;13026;49.486;10.926;2022-08-06T15:29:49;29.70;32.50
25010;DHT22;13026;49.486;10.926;2022-08-06T15:32:15;29.90;32.20
25010;DHT22;13026;49.486;10.926;2022-08-06T15:34:41;29.90;31.70
25010;DHT22;13026;49.486;10.926;2022-08-06T15:37:07;29.90;31.50
25010;DHT22;13026;49.486;10.926;2022-08-06T15:39:33;30.20;32.50
25010;DHT22;13026;49.486;10.926;2022-08-06T15:42:00;30.50;32.30
25010;DHT22;13026;49.486;10.926;2022-08-06T15:44:25;30.70;31.40
25010;DHT22;13026;49.486;10.926;2022-08-06T15:46:51;30.80;30.90
25010;DHT22;13026;49.486;10.926;2022-08-06T15:49:17;31.10;30.70
25010;DHT22;13026;49.486;10.926;2022-08-06T15:51:42;32.00;30.00
25010;DHT22;13026;49.486;10.926;2022-08-06T15:54:08;34.00;27.30
25010;DHT22;13026;49.486;10.926;2022-08-06T15:56:34;35.60;25.80
25010;DHT22;13026;49.486;10.926;2022-08-06T15:59:00;37.10;24.20
25010;DHT22;13026;49.486;10.926;2022-08-06T16:01:26;38.20;23.00
25010;DHT22;13026;49.486;10.926;2022-08-06T16:03:51;39.10;22.40
25010;DHT22;13026;49.486;10.926;2022-08-06T16:06:17;39.50;21.80
25010;DHT22;13026;49.486;10.926;2022-08-06T16:08:43;38.20;22.70
25010;DHT22;13026;49.486;10.926;2022-08-06T16:11:10;36.20;24.90
25010;DHT22;13026;49.486;10.926;2022-08-06T16:13:36;34.20;26.10
25010;DHT22;13026;49.486;10.926;2022-08-06T16:16:02;32.80;27.50
25010;DHT22;13026;49.486;10.926;2022-08-06T16:18:28;31.60;28.30